createdAt,value
2018-12-16T00:00:28.863Z,-3.20
2018-12-16T00:03:03.404Z,-3.10
2018-12-16T00:05:37.776Z,-3.10
2018-12-16T00:08:12.289Z,-2.90
2018-12-16T00:10:46.771Z,-2.80
2018-12-16T00:13:21.143Z,-2.80
2018-12-16T00:15:55.389Z,-2.70
2018-12-16T00:18:29.650Z,-2.70
2018-12-16T00:21:04.792Z,-2.70
2018-12-16T00:23:39.078Z,-2.70
2018-12-16T00:26:13.307Z,-2.70
2018-12-16T00:28:47.676Z,-2.80
2018-12-16T00:31:22.180Z,-2.70
2018-12-16T00:33:56.421Z,-2.70
2018-12-16T00:36:30.690Z,-2.70
2018-12-16T00:39:06.385Z,-2.70
2018-12-16T00:41:40.713Z,-2.60
2018-12-16T00:44:15.041Z,-2.50
2018-12-16T00:46:49.474Z,-2.60
2018-12-16T00:49:23.855Z,-2.70
2018-12-16T00:51:58.111Z,-2.60
2018-12-16T00:54:32.761Z,-2.70
2018-12-16T00:57:07.122Z,-2.70
2018-12-16T00:59:41.451Z,-2.70
2018-12-16T01:02:21.066Z,-2.70
2018-12-16T01:04:55.325Z,-2.70
2018-12-16T01:07:29.781Z,-2.70
2018-12-16T01:10:04.366Z,-2.70
2018-12-16T01:12:38.785Z,-2.60
2018-12-16T01:15:13.136Z,-2.60
2018-12-16T01:17:47.505Z,-2.70
2018-12-16T01:20:21.836Z,-2.70
2018-12-16T01:22:56.057Z,-2.70
2018-12-16T01:25:30.412Z,-2.70
2018-12-16T01:28:04.837Z,-2.70
2018-12-16T01:30:39.223Z,-2.70
2018-12-16T01:33:13.543Z,-2.70
2018-12-16T01:35:47.907Z,-2.70
2018-12-16T01:38:22.153Z,-2.70
2018-12-16T01:40:56.586Z,-2.70
2018-12-16T01:43:31.957Z,-2.80
2018-12-16T01:46:06.367Z,-2.70
2018-12-16T01:48:40.639Z,-2.70
2018-12-16T01:51:14.832Z,-2.70
2018-12-16T01:53:49.213Z,-2.60
2018-12-16T01:56:23.532Z,-2.60
2018-12-16T01:58:57.826Z,-2.40
2018-12-16T02:01:32.255Z,-2.50
2018-12-16T02:04:06.794Z,-2.40
2018-12-16T02:06:41.256Z,-2.40
2018-12-16T02:09:15.553Z,-2.40
2018-12-16T02:11:49.901Z,-2.40
2018-12-16T02:14:24.258Z,-2.40
2018-12-16T02:16:58.618Z,-2.20
2018-12-16T02:19:35.832Z,-2.20
2018-12-16T02:22:11.151Z,-2.20
2018-12-16T02:24:45.541Z,-2.10
2018-12-16T02:27:19.795Z,-2.10
2018-12-16T02:29:54.003Z,-2.10
2018-12-16T02:32:28.339Z,-2.10
2018-12-16T02:35:02.688Z,-2.10
2018-12-16T02:37:37.123Z,-2.00
2018-12-16T02:40:11.583Z,-1.90
2018-12-16T02:42:46.156Z,-1.80
2018-12-16T02:45:20.958Z,-1.80
2018-12-16T02:47:55.317Z,-1.80
2018-12-16T02:50:29.707Z,-1.90
2018-12-16T02:53:04.698Z,-1.90
2018-12-16T02:55:39.356Z,-1.90
2018-12-16T02:58:13.576Z,-1.80
2018-12-16T03:00:47.989Z,-1.80
2018-12-16T03:03:22.220Z,-1.90
2018-12-16T03:05:56.594Z,-1.90
2018-12-16T03:08:30.877Z,-1.80
2018-12-16T03:11:05.362Z,-1.80
2018-12-16T03:13:39.778Z,-1.80
2018-12-16T03:16:14.120Z,-1.70
2018-12-16T03:18:50.584Z,-1.70
2018-12-16T03:21:24.810Z,-1.70
2018-12-16T03:23:59.144Z,-1.70
2018-12-16T03:26:36.021Z,-1.70
2018-12-16T03:29:09.690Z,-1.70
2018-12-16T03:31:44.053Z,-1.50
2018-12-16T03:34:18.526Z,-1.40
2018-12-16T03:36:52.870Z,-1.40
2018-12-16T03:39:27.212Z,-1.40
2018-12-16T03:42:01.576Z,-1.40
2018-12-16T03:44:39.107Z,-1.40
2018-12-16T03:47:13.398Z,-1.40
2018-12-16T03:49:47.607Z,-1.40
2018-12-16T03:52:21.956Z,-1.40
2018-12-16T03:54:56.281Z,-1.40
2018-12-16T03:57:30.731Z,-1.30
2018-12-16T04:00:06.054Z,-1.40
2018-12-16T04:02:40.407Z,-1.30
2018-12-16T04:05:14.700Z,-1.40
2018-12-16T04:07:48.906Z,-1.30
2018-12-16T04:10:23.134Z,-1.30
2018-12-16T04:12:57.360Z,-1.30
2018-12-16T04:15:31.952Z,-1.30
2018-12-16T04:18:06.299Z,-1.30
2018-12-16T04:20:40.538Z,-1.30
2018-12-16T04:23:15.224Z,-1.30
2018-12-16T04:25:49.860Z,-1.30
2018-12-16T04:28:24.527Z,-1.30
2018-12-16T04:30:59.155Z,-1.30
2018-12-16T04:33:33.602Z,-1.30
2018-12-16T04:36:10.677Z,-1.30
2018-12-16T04:38:45.457Z,-1.20
2018-12-16T04:41:20.145Z,-1.10
2018-12-16T04:43:54.762Z,-1.20
2018-12-16T04:46:29.455Z,-1.10
2018-12-16T04:49:04.103Z,-1.10
2018-12-16T04:51:38.656Z,-1.20
2018-12-16T04:54:13.301Z,-1.20
2018-12-16T04:56:47.905Z,-1.30
2018-12-16T04:59:22.599Z,-1.40
2018-12-16T05:01:57.298Z,-1.40
2018-12-16T05:04:31.713Z,-1.40
2018-12-16T05:07:06.358Z,-1.50
2018-12-16T05:09:40.740Z,-1.60
2018-12-16T05:12:15.209Z,-1.60
2018-12-16T05:14:49.826Z,-1.60
2018-12-16T05:17:24.543Z,-1.70
2018-12-16T05:20:08.739Z,-1.70
2018-12-16T05:22:43.466Z,-1.70
2018-12-16T05:25:28.043Z,-1.80
2018-12-16T05:28:03.059Z,-1.80
2018-12-16T05:30:37.622Z,-1.70
2018-12-16T05:33:17.159Z,-1.70
2018-12-16T05:35:51.793Z,-1.70
2018-12-16T05:38:26.287Z,-1.70
2018-12-16T05:41:10.510Z,-1.80
2018-12-16T05:43:51.183Z,-1.70
2018-12-16T05:46:25.747Z,-1.70
2018-12-16T05:49:00.255Z,-1.60
2018-12-16T05:51:35.029Z,-1.60
2018-12-16T05:54:09.927Z,-1.70
2018-12-16T05:56:44.520Z,-1.60
2018-12-16T05:59:19.106Z,-1.60
2018-12-16T06:01:53.505Z,-1.60
2018-12-16T06:04:28.000Z,-1.60
2018-12-16T06:07:09.394Z,-1.50
2018-12-16T06:09:44.235Z,-1.50
2018-12-16T06:12:18.953Z,-1.60
2018-12-16T06:14:55.299Z,-1.60
2018-12-16T06:17:32.092Z,-1.60
2018-12-16T06:20:10.453Z,-1.60
2018-12-16T06:22:45.120Z,-1.60
2018-12-16T06:25:19.924Z,-1.60
2018-12-16T06:27:54.415Z,-1.50
2018-12-16T06:30:32.696Z,-1.50
2018-12-16T06:33:10.130Z,-1.50
2018-12-16T06:35:47.724Z,-1.50
2018-12-16T06:38:22.359Z,-1.50
2018-12-16T06:40:57.282Z,-1.50
2018-12-16T06:43:31.784Z,-1.60
2018-12-16T06:46:06.532Z,-1.50
2018-12-16T06:48:41.338Z,-1.50
2018-12-16T06:51:23.341Z,-1.50
2018-12-16T06:54:02.320Z,-1.50
2018-12-16T06:59:31.013Z,-1.40
2018-12-16T07:02:23.903Z,-1.40
2018-12-16T07:04:58.558Z,-1.40
2018-12-16T07:07:45.242Z,-1.40
2018-12-16T07:10:33.056Z,-1.30
2018-12-16T07:13:07.833Z,-1.30
2018-12-16T07:18:48.736Z,-1.40
2018-12-16T07:21:27.931Z,-1.30
2018-12-16T07:24:11.365Z,-1.30
2018-12-16T07:30:28.861Z,-1.30
2018-12-16T07:33:25.191Z,-1.20
2018-12-16T07:35:59.943Z,-1.10
2018-12-16T07:38:34.655Z,-1.20
2018-12-16T07:44:16.258Z,-1.20
2018-12-16T07:46:57.282Z,-1.20
2018-12-16T07:49:43.553Z,-1.20
2018-12-16T07:52:20.508Z,-1.10
2018-12-16T07:55:17.981Z,-1.10
2018-12-16T07:58:07.236Z,-1.00
2018-12-16T08:00:42.642Z,-0.90
2018-12-16T08:03:31.702Z,-0.90
2018-12-16T08:06:24.948Z,-0.80
2018-12-16T08:09:10.111Z,-0.70
2018-12-16T08:12:01.659Z,-0.70
2018-12-16T08:14:36.382Z,-0.50
2018-12-16T08:19:57.919Z,-0.50
2018-12-16T08:22:33.425Z,-0.50
2018-12-16T08:25:32.862Z,-0.40
2018-12-16T08:28:15.858Z,-0.40
2018-12-16T08:34:10.723Z,-0.40
2018-12-16T08:36:44.934Z,-0.30
2018-12-16T08:39:19.174Z,-0.30
2018-12-16T08:41:53.482Z,-0.30
2018-12-16T08:44:27.688Z,-0.20
2018-12-16T08:47:02.005Z,-0.10
2018-12-16T08:49:36.337Z,-0.10
2018-12-16T08:52:10.657Z,0.00
2018-12-16T08:54:44.968Z,0.00
2018-12-16T08:57:19.381Z,0.10
2018-12-16T08:59:56.826Z,0.20
2018-12-16T09:02:31.068Z,0.20
2018-12-16T09:05:05.589Z,0.30
2018-12-16T09:07:39.831Z,0.50
2018-12-16T09:10:14.306Z,0.70
2018-12-16T09:12:48.771Z,0.70
2018-12-16T09:15:23.268Z,0.60
2018-12-16T09:17:57.511Z,0.60
2018-12-16T09:20:31.747Z,0.50
2018-12-16T09:23:06.005Z,0.60
2018-12-16T09:25:40.441Z,0.60
2018-12-16T09:28:14.837Z,0.60
2018-12-16T09:30:49.344Z,0.50
2018-12-16T09:33:23.570Z,0.60
2018-12-16T09:35:57.891Z,0.60
2018-12-16T09:38:32.249Z,0.70
2018-12-16T09:41:06.641Z,0.70
2018-12-16T09:43:41.006Z,0.80
2018-12-16T09:46:15.217Z,0.90
2018-12-16T09:48:49.608Z,1.10
2018-12-16T09:51:23.954Z,1.10
2018-12-16T09:53:58.355Z,1.20
2018-12-16T09:56:32.555Z,1.30
2018-12-16T09:59:07.008Z,1.40
2018-12-16T10:01:41.361Z,1.40
2018-12-16T10:04:15.783Z,1.60
2018-12-16T10:06:50.104Z,1.70
2018-12-16T10:09:24.306Z,1.90
2018-12-16T10:12:01.376Z,1.90
2018-12-16T10:14:35.710Z,2.00
2018-12-16T10:17:10.098Z,2.10
2018-12-16T10:19:44.379Z,2.00
2018-12-16T10:22:18.739Z,2.00
2018-12-16T10:24:53.132Z,2.10
2018-12-16T10:27:27.512Z,2.20
2018-12-16T10:30:01.910Z,2.40
2018-12-16T10:32:36.138Z,2.40
2018-12-16T10:35:10.445Z,2.30
2018-12-16T10:37:45.656Z,2.30
2018-12-16T10:40:20.091Z,2.40
2018-12-16T10:42:55.452Z,2.60
2018-12-16T10:45:29.896Z,2.80
2018-12-16T10:48:04.224Z,2.90
2018-12-16T10:50:38.482Z,3.10
2018-12-16T10:53:12.787Z,3.10
2018-12-16T10:55:47.254Z,3.40
2018-12-16T10:58:21.445Z,3.10
2018-12-16T11:01:03.009Z,3.20
2018-12-16T11:03:37.314Z,3.10
2018-12-16T11:06:11.572Z,3.20
2018-12-16T11:08:46.177Z,3.00
2018-12-16T11:11:20.830Z,2.70
2018-12-16T11:13:55.143Z,2.60
2018-12-16T11:16:29.621Z,2.60
2018-12-16T11:19:04.176Z,2.80
2018-12-16T11:21:38.984Z,2.90
2018-12-16T11:24:13.242Z,3.20
2018-12-16T11:26:47.681Z,3.20
2018-12-16T11:29:21.875Z,3.20
2018-12-16T11:31:56.923Z,3.20
2018-12-16T11:37:17.750Z,3.40
2018-12-16T11:39:53.513Z,3.50
2018-12-16T11:42:28.077Z,3.50
2018-12-16T11:45:02.404Z,3.30
2018-12-16T11:47:36.724Z,3.40
2018-12-16T11:50:11.113Z,3.30
2018-12-16T11:52:45.460Z,3.50
2018-12-16T11:55:19.841Z,3.60
2018-12-16T11:57:54.015Z,3.70
2018-12-16T12:00:28.377Z,3.80
2018-12-16T12:03:02.609Z,3.80
2018-12-16T12:05:36.883Z,4.00
2018-12-16T12:08:14.283Z,4.00
2018-12-16T12:10:48.575Z,3.90
2018-12-16T12:13:23.846Z,4.00
2018-12-16T12:15:58.228Z,4.00
2018-12-16T12:18:32.471Z,4.20
2018-12-16T12:21:06.794Z,4.30
2018-12-16T12:23:43.897Z,4.40
2018-12-16T12:26:18.272Z,4.30
2018-12-16T12:28:52.692Z,4.00
2018-12-16T12:31:27.108Z,4.10
2018-12-16T12:34:01.363Z,4.00
2018-12-16T12:36:35.854Z,4.00
2018-12-16T12:39:10.516Z,4.00
2018-12-16T12:41:45.759Z,3.90
2018-12-16T12:44:20.061Z,3.90
2018-12-16T12:46:54.622Z,4.00
2018-12-16T12:52:16.297Z,4.20
2018-12-16T12:54:50.575Z,4.20
2018-12-16T12:57:24.957Z,4.00
2018-12-16T12:59:59.282Z,4.00
2018-12-16T13:02:33.750Z,3.90
2018-12-16T13:05:08.124Z,3.80
2018-12-16T13:07:42.374Z,3.90
2018-12-16T13:10:16.695Z,3.80
2018-12-16T13:12:52.799Z,3.80
2018-12-16T13:15:29.800Z,3.90
2018-12-16T13:18:06.047Z,4.00
2018-12-16T13:20:45.896Z,4.20
2018-12-16T13:23:24.311Z,4.10
2018-12-16T13:26:13.885Z,4.10
2018-12-16T13:28:54.244Z,4.30
2018-12-16T13:31:38.497Z,4.30
2018-12-16T13:34:20.070Z,4.20
2018-12-16T13:37:05.054Z,4.10
2018-12-16T13:39:43.364Z,4.30
2018-12-16T13:42:23.200Z,4.20
2018-12-16T13:45:07.204Z,4.40
2018-12-16T13:47:45.059Z,4.30
2018-12-16T13:50:26.760Z,4.20
2018-12-16T13:53:08.750Z,4.20
2018-12-16T13:55:43.221Z,4.20
2018-12-16T13:58:17.561Z,4.50
2018-12-16T14:00:51.903Z,4.50
2018-12-16T14:03:26.279Z,4.40
2018-12-16T14:06:00.567Z,4.40
2018-12-16T14:08:34.775Z,4.20
2018-12-16T14:11:09.115Z,4.10
2018-12-16T14:13:43.418Z,4.00
2018-12-16T14:16:17.856Z,4.00
2018-12-16T14:18:52.225Z,3.90
2018-12-16T14:26:24.178Z,3.90
2018-12-16T14:29:09.433Z,3.90
2018-12-16T14:35:38.507Z,3.90
2018-12-16T14:47:46.485Z,4.70
2018-12-16T14:53:36.055Z,6.60
2018-12-16T14:56:24.718Z,6.80
2018-12-16T14:59:08.169Z,6.70
2018-12-16T15:02:05.434Z,6.70
2018-12-16T15:04:40.976Z,6.50
2018-12-16T15:09:47.329Z,6.20
2018-12-16T15:12:21.599Z,5.40
2018-12-16T15:14:56.116Z,5.00
2018-12-16T15:17:30.419Z,4.90
2018-12-16T15:20:06.571Z,4.80
2018-12-16T15:22:41.079Z,4.50
2018-12-16T15:25:15.371Z,4.30
2018-12-16T15:27:49.669Z,4.10
2018-12-16T15:30:23.999Z,4.20
2018-12-16T15:32:58.943Z,4.00
2018-12-16T15:35:41.091Z,3.90
2018-12-16T15:38:18.595Z,3.80
2018-12-16T15:41:01.310Z,3.70
2018-12-16T15:43:44.631Z,3.90
2018-12-16T15:46:22.524Z,3.70
2018-12-16T15:49:05.963Z,3.60
2018-12-16T15:51:48.952Z,3.50
2018-12-16T15:54:24.349Z,3.50
2018-12-16T15:57:19.751Z,3.40
2018-12-16T15:59:56.624Z,3.40
2018-12-16T16:02:34.111Z,3.20
2018-12-16T16:05:14.054Z,3.20
2018-12-16T16:11:03.048Z,3.00
2018-12-16T16:14:02.246Z,2.90
2018-12-16T16:16:50.687Z,3.10
2018-12-16T16:22:36.004Z,3.00
2018-12-16T16:32:08.514Z,2.70
2018-12-16T16:34:52.047Z,2.70
2018-12-16T16:37:27.693Z,2.70
2018-12-16T16:40:10.312Z,2.70
2018-12-16T16:42:47.802Z,2.60
2018-12-16T16:45:29.285Z,2.60
2018-12-16T16:48:09.030Z,2.60
2018-12-16T16:50:44.403Z,2.60
2018-12-16T16:53:22.639Z,2.60
2018-12-16T16:56:04.891Z,2.60
2018-12-16T16:58:42.067Z,2.70
2018-12-16T17:01:19.564Z,2.80
2018-12-16T17:03:55.421Z,2.80
2018-12-16T17:06:33.953Z,2.90
2018-12-16T17:09:18.494Z,2.90
2018-12-16T17:11:55.888Z,2.80
2018-12-16T17:14:58.733Z,2.80
2018-12-16T17:17:49.465Z,2.70
2018-12-16T17:20:29.532Z,2.60
2018-12-16T17:23:04.265Z,2.60
2018-12-16T17:25:38.774Z,2.60
2018-12-16T17:28:13.237Z,2.60
2018-12-16T17:30:47.503Z,2.60
2018-12-16T17:33:21.771Z,2.60
2018-12-16T17:35:56.114Z,2.50
2018-12-16T17:38:30.507Z,2.40
2018-12-16T17:41:05.047Z,2.40
2018-12-16T17:43:39.607Z,2.50
2018-12-16T17:46:13.897Z,2.40
2018-12-16T17:48:48.345Z,2.60
2018-12-16T17:51:22.570Z,2.50
2018-12-16T17:53:56.878Z,2.50
2018-12-16T17:56:37.031Z,2.50
2018-12-16T17:59:07.678Z,2.40
2018-12-16T18:01:42.762Z,2.50
2018-12-16T18:04:17.176Z,2.50
2018-12-16T18:06:51.496Z,2.50
2018-12-16T18:09:25.722Z,2.50
2018-12-16T18:12:00.062Z,2.40
2018-12-16T18:14:34.505Z,2.40
2018-12-16T18:17:09.942Z,2.30
2018-12-16T18:22:25.391Z,2.30
2018-12-16T18:24:59.690Z,2.30
2018-12-16T18:27:34.027Z,2.20
2018-12-16T18:30:09.355Z,2.20
2018-12-16T18:32:43.718Z,2.20
2018-12-16T18:35:18.136Z,2.10
2018-12-16T18:37:52.682Z,2.20
2018-12-16T18:40:27.245Z,2.30
2018-12-16T18:43:01.573Z,2.30
2018-12-16T18:45:35.912Z,2.30
2018-12-16T18:48:10.199Z,2.30
2018-12-16T18:50:44.635Z,2.40
2018-12-16T18:53:18.866Z,2.40
2018-12-16T18:55:53.372Z,2.40
2018-12-16T18:58:27.801Z,2.40
2018-12-16T19:01:02.025Z,2.30
2018-12-16T19:03:36.435Z,2.30
2018-12-16T19:06:10.884Z,2.30
2018-12-16T19:08:45.109Z,2.40
2018-12-16T19:11:19.374Z,2.40
2018-12-16T19:13:53.837Z,2.50
2018-12-16T19:16:28.368Z,2.60
2018-12-16T19:19:02.728Z,2.50
2018-12-16T19:21:36.993Z,2.40
2018-12-16T19:24:11.479Z,2.50
2018-12-16T19:26:45.674Z,2.40
2018-12-16T19:29:19.952Z,2.50
2018-12-16T19:31:54.239Z,2.50
2018-12-16T19:34:28.636Z,2.40
2018-12-16T19:37:03.017Z,2.40
2018-12-16T19:39:37.492Z,2.40
2018-12-16T19:42:11.709Z,2.40
2018-12-16T19:44:46.040Z,2.40
2018-12-16T19:47:20.431Z,2.40
2018-12-16T19:49:54.698Z,2.50
2018-12-16T19:52:29.038Z,2.70
2018-12-16T19:55:03.335Z,2.70
2018-12-16T19:57:37.804Z,2.60
2018-12-16T20:00:12.253Z,2.50
2018-12-16T20:02:46.721Z,2.50
2018-12-16T20:05:21.452Z,2.50
2018-12-16T20:07:55.745Z,2.50
2018-12-16T20:10:30.059Z,2.50
2018-12-16T20:13:04.460Z,2.60
2018-12-16T20:15:39.258Z,2.50
2018-12-16T20:18:13.638Z,2.50
2018-12-16T20:20:47.943Z,2.40
2018-12-16T20:23:22.249Z,2.30
2018-12-16T20:25:56.494Z,2.30
2018-12-16T20:28:33.483Z,2.30
2018-12-16T20:31:07.839Z,2.30
2018-12-16T20:33:42.377Z,2.30
2018-12-16T20:36:16.738Z,2.20
2018-12-16T20:38:51.088Z,2.00
2018-12-16T20:41:25.440Z,2.00
2018-12-16T20:44:02.830Z,2.00
2018-12-16T20:46:37.334Z,1.90
2018-12-16T20:49:11.693Z,1.80
2018-12-16T20:51:45.962Z,1.80
2018-12-16T20:54:20.168Z,1.80
2018-12-16T20:56:54.380Z,2.00
2018-12-16T20:59:28.764Z,2.10
2018-12-16T21:02:03.222Z,2.20
2018-12-16T21:04:38.388Z,2.00
2018-12-16T21:07:12.779Z,1.90
2018-12-16T21:09:47.125Z,1.90
2018-12-16T21:12:26.886Z,1.70
2018-12-16T21:15:06.460Z,1.50
2018-12-16T21:17:46.107Z,1.50
2018-12-16T21:20:20.670Z,1.40
2018-12-16T21:22:55.029Z,1.30
2018-12-16T21:25:29.241Z,1.20
2018-12-16T21:28:03.504Z,1.20
2018-12-16T21:30:37.706Z,1.10
2018-12-16T21:33:12.009Z,1.00
2018-12-16T21:35:46.911Z,1.00
2018-12-16T21:38:21.870Z,1.00
2018-12-16T21:40:56.259Z,1.20
2018-12-16T21:43:30.653Z,1.10
2018-12-16T21:46:05.149Z,0.90
2018-12-16T21:48:39.523Z,0.80
2018-12-16T21:51:13.928Z,0.80
2018-12-16T21:53:48.529Z,0.70
2018-12-16T21:56:22.897Z,0.60
2018-12-16T21:58:57.406Z,0.50
2018-12-16T22:01:31.788Z,0.60
2018-12-16T22:04:05.984Z,0.50
2018-12-16T22:06:40.318Z,0.50
2018-12-16T22:09:14.555Z,0.50
2018-12-16T22:11:48.996Z,0.40
2018-12-16T22:14:23.234Z,0.30
2018-12-16T22:16:57.533Z,0.20
2018-12-16T22:19:31.932Z,0.30
2018-12-16T22:22:06.233Z,0.20
2018-12-16T22:24:40.531Z,0.10
2018-12-16T22:27:14.769Z,0.10
2018-12-16T22:29:49.074Z,0.00
2018-12-16T22:32:23.345Z,0.00
2018-12-16T22:34:57.708Z,-0.10
2018-12-16T22:37:32.426Z,-0.10
2018-12-16T22:40:07.414Z,-0.20
2018-12-16T22:42:41.852Z,-0.20
2018-12-16T22:45:16.080Z,-0.30
2018-12-16T22:47:50.355Z,-0.30
2018-12-16T22:50:24.745Z,-0.30
2018-12-16T22:52:58.984Z,-0.30
2018-12-16T22:55:33.290Z,-0.20
2018-12-16T22:58:07.574Z,-0.10
2018-12-16T23:00:47.214Z,-0.10
2018-12-16T23:03:21.481Z,-0.10
2018-12-16T23:05:55.765Z,0.00
2018-12-16T23:08:32.869Z,0.10
2018-12-16T23:11:07.130Z,0.10
2018-12-16T23:13:41.612Z,0.10
2018-12-16T23:16:15.896Z,0.20
2018-12-16T23:18:50.415Z,0.20
2018-12-16T23:21:24.973Z,0.30
2018-12-16T23:23:59.402Z,0.40
2018-12-16T23:26:33.851Z,0.40
2018-12-16T23:29:08.291Z,0.40
2018-12-16T23:31:42.478Z,0.50
2018-12-16T23:34:16.788Z,0.50
2018-12-16T23:36:51.229Z,0.50
2018-12-16T23:39:25.568Z,0.50
2018-12-16T23:41:59.875Z,0.50
2018-12-16T23:44:34.206Z,0.50
2018-12-16T23:47:08.419Z,0.40
2018-12-16T23:49:42.682Z,0.40
2018-12-16T23:52:17.011Z,0.40
2018-12-16T23:54:51.241Z,0.40
2018-12-16T23:57:25.450Z,0.40
